createdAt,value
2023-07-24T00:02:15.310Z,99940.81
2023-07-24T00:04:42.917Z,99925.91
2023-07-24T00:07:11.884Z,99928.88
2023-07-24T00:09:39.470Z,99933.50
2023-07-24T00:12:08.354Z,99929.47
2023-07-24T00:14:35.917Z,99931.66
2023-07-24T00:17:03.596Z,99926.50
2023-07-24T00:19:31.176Z,99928.44
2023-07-24T00:21:58.747Z,99916.25
2023-07-24T00:24:27.753Z,99911.13
2023-07-24T00:26:55.447Z,99911.94
2023-07-24T00:29:23.136Z,99912.22
2023-07-24T00:31:51.089Z,99924.13
2023-07-24T00:34:18.746Z,99915.47
2023-07-24T00:36:46.356Z,99916.03
2023-07-24T00:39:16.682Z,99912.50
2023-07-24T00:41:45.586Z,99916.53
2023-07-24T00:44:13.307Z,99906.84
2023-07-24T00:46:41.044Z,99908.75
2023-07-24T00:49:09.827Z,99911.44
2023-07-24T00:51:37.594Z,99909.56
2023-07-24T00:54:06.656Z,99909.81
2023-07-24T00:56:34.707Z,99903.63
2023-07-24T00:59:03.901Z,99904.66
2023-07-24T01:01:31.951Z,99904.66
2023-07-24T01:03:59.938Z,99904.09
2023-07-24T01:06:28.209Z,99906.00
2023-07-24T01:08:56.330Z,99908.94
2023-07-24T01:11:29.863Z,99907.81
2023-07-24T01:14:00.791Z,99913.00
2023-07-24T01:16:39.968Z,99910.84
2023-07-24T01:19:17.988Z,99909.19
2023-07-24T01:22:00.461Z,99902.44
2023-07-24T01:24:35.498Z,99907.81
2023-07-24T01:27:05.850Z,99896.50
2023-07-24T01:29:33.489Z,99907.81
2023-07-24T01:32:01.118Z,99895.06
2023-07-24T01:34:29.049Z,99894.00
2023-07-24T01:36:56.779Z,99904.03
2023-07-24T01:39:24.529Z,99898.94
2023-07-24T01:41:52.620Z,99894.84
2023-07-24T01:44:21.514Z,99887.78
2023-07-24T01:46:49.250Z,99889.16
2023-07-24T01:49:16.941Z,99896.44
2023-07-24T01:51:45.440Z,99881.59
2023-07-24T01:54:13.072Z,99886.19
2023-07-24T01:56:41.578Z,99887.03
2023-07-24T01:59:09.234Z,99881.34
2023-07-24T02:01:38.211Z,99886.22
2023-07-24T02:04:05.974Z,99891.13
2023-07-24T02:06:34.268Z,99888.41
2023-07-24T02:09:01.881Z,99880.31
2023-07-24T02:11:29.521Z,99885.19
2023-07-24T02:13:57.207Z,99877.34
2023-07-24T02:16:24.826Z,99876.53
2023-07-24T02:18:53.848Z,99873.84
2023-07-24T02:21:21.447Z,99877.91
2023-07-24T02:23:49.056Z,99883.03
2023-07-24T02:26:16.587Z,99868.47
2023-07-24T02:28:44.241Z,99871.16
2023-07-24T02:31:11.854Z,99871.69
2023-07-24T02:33:39.475Z,99872.25
2023-07-24T02:36:09.759Z,99874.94
2023-07-24T02:38:38.090Z,99876.03
2023-07-24T02:41:08.834Z,99877.09
2023-07-24T02:43:37.269Z,99885.50
2023-07-24T02:46:05.120Z,99873.06
2023-07-24T02:48:32.743Z,99877.13
2023-07-24T02:51:00.360Z,99871.69
2023-07-24T02:53:29.364Z,99872.75
2023-07-24T02:55:56.924Z,99873.56
2023-07-24T02:58:24.515Z,99866.03
2023-07-24T03:00:53.018Z,99866.28
2023-07-24T03:03:20.708Z,99872.25
2023-07-24T03:05:48.425Z,99874.16
2023-07-24T03:08:16.034Z,99874.44
2023-07-24T03:10:44.962Z,99876.53
2023-07-24T03:13:11.612Z,99871.19
2023-07-24T03:15:39.269Z,99878.19
2023-07-24T03:18:06.941Z,99869.56
2023-07-24T03:20:34.583Z,99875.50
2023-07-24T03:23:02.203Z,99878.97
2023-07-24T03:25:29.770Z,99877.88
2023-07-24T03:27:58.696Z,99868.38
2023-07-24T03:30:27.642Z,99864.31
2023-07-24T03:32:55.363Z,99864.06
2023-07-24T03:35:23.177Z,99865.13
2023-07-24T03:37:50.833Z,99868.88
2023-07-24T03:40:18.549Z,99873.75
2023-07-24T03:42:46.072Z,99861.59
2023-07-24T03:45:15.055Z,99859.13
2023-07-24T03:47:43.223Z,99860.72
2023-07-24T03:50:11.644Z,99863.97
2023-07-24T03:52:39.178Z,99863.44
2023-07-24T03:55:08.936Z,99865.03
2023-07-24T03:57:36.603Z,99852.38
2023-07-24T04:00:04.309Z,99864.53
2023-07-24T04:02:41.684Z,99865.03
2023-07-24T04:05:09.651Z,99862.91
2023-07-24T04:07:38.221Z,99862.91
2023-07-24T04:10:06.856Z,99868.31
2023-07-24T04:12:34.466Z,99865.59
2023-07-24T04:15:02.011Z,99866.97
2023-07-24T04:17:29.702Z,99872.13
2023-07-24T04:19:58.664Z,99874.78
2023-07-24T04:22:27.207Z,99871.56
2023-07-24T04:24:54.810Z,99876.75
2023-07-24T04:27:22.345Z,99878.56
2023-07-24T04:29:50.005Z,99872.97
2023-07-24T04:32:17.637Z,99873.19
2023-07-24T04:34:45.239Z,99870.78
2023-07-24T04:37:14.104Z,99873.50
2023-07-24T04:39:41.913Z,99874.81
2023-07-24T04:42:09.467Z,99878.63
2023-07-24T04:44:37.060Z,99880.78
2023-07-24T04:47:05.063Z,99889.38
2023-07-24T04:49:33.898Z,99880.22
2023-07-24T04:52:01.820Z,99887.81
2023-07-24T04:54:30.739Z,99885.41
2023-07-24T04:56:58.332Z,99876.75
2023-07-24T04:59:25.959Z,99874.28
2023-07-24T05:01:53.703Z,99859.16
2023-07-24T05:04:21.416Z,99852.94
2023-07-24T05:06:49.047Z,99852.94
2023-07-24T05:09:16.630Z,99855.31
2023-07-24T05:11:45.769Z,99854.53
2023-07-24T05:14:13.505Z,99858.00
2023-07-24T05:16:41.132Z,99852.09
2023-07-24T05:19:08.794Z,99851.53
2023-07-24T05:21:36.410Z,99838.25
2023-07-24T05:24:04.343Z,99839.06
2023-07-24T05:26:32.291Z,99841.19
2023-07-24T05:29:01.464Z,99831.94
2023-07-24T05:31:29.023Z,99832.38
2023-07-24T05:33:56.716Z,99831.28
2023-07-24T05:36:24.378Z,99832.91
2023-07-24T05:38:53.708Z,99832.34
2023-07-24T05:41:21.305Z,99826.81
2023-07-24T05:43:48.845Z,99827.91
2023-07-24T05:46:17.984Z,99837.09
2023-07-24T05:48:45.579Z,99827.28
2023-07-24T05:51:13.150Z,99826.06
2023-07-24T05:53:40.720Z,99823.34
2023-07-24T05:56:08.304Z,99831.91
2023-07-24T05:58:35.997Z,99817.94
2023-07-24T06:01:04.340Z,99812.50
2023-07-24T06:03:33.346Z,99809.97
2023-07-24T06:06:01.009Z,99808.06
2023-07-24T06:08:28.628Z,99805.69
2023-07-24T06:10:56.264Z,99809.91
2023-07-24T06:13:23.878Z,99817.00
2023-07-24T06:15:52.360Z,99810.75
2023-07-24T06:18:20.128Z,99813.00
2023-07-24T06:20:51.067Z,99816.94
2023-07-24T06:23:18.756Z,99820.03
2023-07-24T06:25:46.341Z,99814.84
2023-07-24T06:28:13.954Z,99816.16
2023-07-24T06:30:41.530Z,99812.66
2023-07-24T06:33:09.165Z,99801.50
2023-07-24T06:35:37.053Z,99803.63
2023-07-24T06:38:06.002Z,99791.78
2023-07-24T06:40:33.589Z,99805.03
2023-07-24T06:43:01.250Z,99807.47
2023-07-24T06:45:28.781Z,99801.56
2023-07-24T06:47:56.426Z,99807.34
2023-07-24T06:50:24.117Z,99802.72
2023-07-24T06:52:52.878Z,99805.78
2023-07-24T06:55:21.816Z,99814.38
2023-07-24T06:57:49.425Z,99804.63
2023-07-24T07:00:17.302Z,99803.84
2023-07-24T07:02:45.003Z,99809.84
2023-07-24T07:05:12.651Z,99814.06
2023-07-24T07:07:40.279Z,99807.31
2023-07-24T07:10:09.104Z,99816.66
2023-07-24T07:12:38.051Z,99808.47
2023-07-24T07:15:06.391Z,99812.28
2023-07-24T07:17:34.008Z,99808.47
2023-07-24T07:20:01.707Z,99813.88
2023-07-24T07:22:29.278Z,99816.59
2023-07-24T07:24:56.875Z,99818.28
2023-07-24T07:27:24.477Z,99818.28
2023-07-24T07:29:53.351Z,99804.94
2023-07-24T07:32:21.000Z,99808.16
2023-07-24T07:34:48.732Z,99804.13
2023-07-24T07:37:16.363Z,99800.78
2023-07-24T07:39:43.921Z,99805.34
2023-07-24T07:42:18.271Z,99808.81
2023-07-24T07:44:47.212Z,99811.59
2023-07-24T07:47:16.242Z,99810.16
2023-07-24T07:49:43.894Z,99805.84
2023-07-24T07:52:11.569Z,99815.50
2023-07-24T07:54:39.189Z,99805.56
2023-07-24T07:57:07.124Z,99816.34
2023-07-24T07:59:36.064Z,99810.78
2023-07-24T08:02:03.763Z,99803.53
2023-07-24T08:04:33.263Z,99789.59
2023-07-24T08:07:00.925Z,99792.03
2023-07-24T08:09:28.893Z,99793.78
2023-07-24T08:11:56.486Z,99799.06
2023-07-24T08:14:24.137Z,99802.13
2023-07-24T08:16:52.277Z,99804.41
2023-07-24T08:19:19.956Z,99800.69
2023-07-24T08:21:49.969Z,99784.69
2023-07-24T08:24:17.591Z,99774.88
2023-07-24T08:26:45.279Z,99788.72
2023-07-24T08:29:12.872Z,99784.19
2023-07-24T08:31:40.725Z,99784.78
2023-07-24T08:34:08.411Z,99783.06
2023-07-24T08:36:36.183Z,99779.56
2023-07-24T08:39:05.262Z,99786.97
2023-07-24T08:41:35.517Z,99781.75
2023-07-24T08:44:03.572Z,99785.09
2023-07-24T08:46:31.662Z,99791.81
2023-07-24T08:48:59.759Z,99776.59
2023-07-24T08:51:28.034Z,99782.31
2023-07-24T08:53:56.111Z,99791.41
2023-07-24T08:56:25.350Z,99798.91
2023-07-24T08:58:52.953Z,99798.41
2023-07-24T09:01:20.620Z,99789.53
2023-07-24T09:03:49.193Z,99798.41
2023-07-24T09:06:18.501Z,99791.59
2023-07-24T09:08:46.078Z,99780.19
2023-07-24T09:11:16.528Z,99786.53
2023-07-24T09:13:46.375Z,99783.84
2023-07-24T09:16:23.279Z,99776.19
2023-07-24T09:18:59.876Z,99779.66
2023-07-24T09:21:37.843Z,99781.88
2023-07-24T09:24:12.669Z,99776.91
2023-07-24T09:26:49.389Z,99783.66
2023-07-24T09:29:18.808Z,99773.44
2023-07-24T09:31:46.734Z,99774.09
2023-07-24T09:34:18.826Z,99772.69
2023-07-24T09:36:46.635Z,99774.69
2023-07-24T09:39:14.240Z,99771.41
2023-07-24T09:41:42.420Z,99778.97
2023-07-24T09:44:10.019Z,99775.88
2023-07-24T09:46:45.954Z,99768.59
2023-07-24T09:49:16.224Z,99759.38
2023-07-24T09:51:48.632Z,99768.44
2023-07-24T09:54:22.999Z,99767.50
2023-07-24T09:57:03.475Z,99751.88
2023-07-24T09:59:38.655Z,99738.44
2023-07-24T10:02:10.904Z,99736.16
2023-07-24T10:04:41.216Z,99740.28
2023-07-24T10:07:09.021Z,99742.22
2023-07-24T10:09:38.862Z,99741.50
2023-07-24T10:12:07.480Z,99740.38
2023-07-24T10:14:36.894Z,99742.03
2023-07-24T10:17:04.743Z,99736.34
2023-07-24T10:19:41.077Z,99739.94
2023-07-24T10:22:09.181Z,99750.28
2023-07-24T10:24:41.710Z,99757.19
2023-07-24T10:27:10.208Z,99744.19
2023-07-24T10:29:38.359Z,99745.28
2023-07-24T10:32:07.522Z,99739.47
2023-07-24T10:34:40.461Z,99733.25
2023-07-24T10:37:10.765Z,99736.66
2023-07-24T10:39:42.322Z,99734.44
2023-07-24T10:42:11.572Z,99735.13
2023-07-24T10:44:39.306Z,99734.34
2023-07-24T10:47:06.916Z,99744.84
2023-07-24T10:49:34.479Z,99729.06
2023-07-24T10:52:03.548Z,99721.22
2023-07-24T10:54:31.192Z,99729.34
2023-07-24T10:57:02.656Z,99733.19
2023-07-24T10:59:40.271Z,99735.69
2023-07-24T11:02:09.195Z,99722.53
2023-07-24T11:04:37.213Z,99723.66
2023-07-24T11:07:06.328Z,99724.31
2023-07-24T11:09:38.137Z,99728.44
2023-07-24T11:12:16.704Z,99723.88
2023-07-24T11:14:51.570Z,99720.31
2023-07-24T11:17:19.651Z,99715.50
2023-07-24T11:19:47.346Z,99713.75
2023-07-24T11:22:16.511Z,99710.56
2023-07-24T11:24:45.727Z,99703.94
2023-07-24T11:27:15.822Z,99702.91
2023-07-24T11:29:43.605Z,99704.44
2023-07-24T11:32:11.252Z,99694.91
2023-07-24T11:34:39.003Z,99696.97
2023-07-24T11:37:08.518Z,99692.63
2023-07-24T11:39:37.477Z,99689.97
2023-07-24T11:42:05.621Z,99693.09
2023-07-24T11:47:05.102Z,99692.94
2023-07-24T11:49:33.635Z,99693.56
2023-07-24T11:52:06.133Z,99687.16
2023-07-24T11:54:37.561Z,99677.81
2023-07-24T11:57:05.349Z,99678.16
2023-07-24T11:59:40.299Z,99677.00
2023-07-24T12:02:12.351Z,99682.31
2023-07-24T12:04:40.095Z,99671.06
2023-07-24T12:07:10.001Z,99680.75
2023-07-24T12:09:38.932Z,99675.31
2023-07-24T12:12:07.256Z,99676.69
2023-07-24T12:14:34.873Z,99661.03
2023-07-24T12:17:03.768Z,99662.31
2023-07-24T12:19:32.000Z,99667.28
2023-07-24T12:21:59.637Z,99660.03
2023-07-24T12:24:27.374Z,99654.91
2023-07-24T12:26:56.277Z,99660.19
2023-07-24T12:29:23.912Z,99654.94
2023-07-24T12:31:51.465Z,99657.13
2023-07-24T12:34:19.157Z,99656.00
2023-07-24T12:36:48.565Z,99657.72
2023-07-24T12:39:16.172Z,99649.81
2023-07-24T12:41:43.787Z,99642.94
2023-07-24T12:44:12.702Z,99655.31
2023-07-24T12:46:40.385Z,99645.81
2023-07-24T12:49:07.980Z,99639.28
2023-07-24T12:51:35.578Z,99640.63
2023-07-24T12:54:06.084Z,99631.44
2023-07-24T12:56:42.498Z,99633.38
2023-07-24T12:59:10.165Z,99634.25
2023-07-24T13:01:39.161Z,99630.84
2023-07-24T13:04:06.888Z,99625.88
2023-07-24T13:06:34.666Z,99626.09
2023-07-24T13:09:02.344Z,99615.78
2023-07-24T13:11:30.221Z,99615.53
2023-07-24T13:13:58.655Z,99611.47
2023-07-24T13:16:26.492Z,99615.41
2023-07-24T13:18:55.489Z,99611.31
2023-07-24T13:21:24.152Z,99610.00
2023-07-24T13:23:52.612Z,99599.91
2023-07-24T13:26:20.403Z,99599.59
2023-07-24T13:28:47.992Z,99593.78
2023-07-24T13:31:16.659Z,99600.66
2023-07-24T13:33:44.295Z,99589.53
2023-07-24T13:36:13.303Z,99601.47
2023-07-24T13:38:42.249Z,99586.28
2023-07-24T13:41:10.131Z,99571.84
2023-07-24T13:43:37.733Z,99581.78
2023-07-24T13:46:05.932Z,99582.31
2023-07-24T13:48:33.493Z,99589.06
2023-07-24T13:51:01.119Z,99587.31
2023-07-24T13:53:30.123Z,99583.31
2023-07-24T13:55:58.024Z,99574.38
2023-07-24T13:58:25.676Z,99572.09
2023-07-24T14:00:53.273Z,99568.06
2023-07-24T14:03:20.941Z,99565.31
2023-07-24T14:05:48.592Z,99559.38
2023-07-24T14:08:16.159Z,99560.03
2023-07-24T14:10:45.090Z,99557.22
2023-07-24T14:13:12.662Z,99569.09
2023-07-24T14:15:40.283Z,99554.69
2023-07-24T14:18:07.878Z,99553.63
2023-07-24T14:20:35.507Z,99546.72
2023-07-24T14:23:03.304Z,99546.13
2023-07-24T14:25:30.908Z,99549.34
2023-07-24T14:27:59.867Z,99550.38
2023-07-24T14:30:27.439Z,99540.94
2023-07-24T14:32:55.133Z,99531.16
2023-07-24T14:35:23.003Z,99539.19
2023-07-24T14:37:50.611Z,99531.31
2023-07-24T14:40:18.295Z,99534.38
2023-07-24T14:42:45.864Z,99526.50
2023-07-24T14:45:15.023Z,99513.84
2023-07-24T14:47:42.634Z,99523.47
2023-07-24T14:50:11.121Z,99518.31
2023-07-24T14:52:38.886Z,99518.00
2023-07-24T14:55:07.209Z,99508.53
2023-07-24T14:57:34.851Z,99502.09
2023-07-24T15:00:02.509Z,99490.69
2023-07-24T15:02:33.711Z,99497.59
2023-07-24T15:05:01.440Z,99503.66
2023-07-24T15:07:29.262Z,99499.97
2023-07-24T15:09:57.382Z,99498.69
2023-07-24T15:12:25.832Z,99503.16
2023-07-24T15:14:53.444Z,99510.00
2023-07-24T15:17:21.039Z,99504.53
2023-07-24T15:19:49.966Z,99492.19
2023-07-24T15:22:17.554Z,99480.19
2023-07-24T15:24:45.175Z,99497.59
2023-07-24T15:27:12.774Z,99580.56
2023-07-24T15:29:40.362Z,99660.78
2023-07-24T15:32:09.238Z,99710.72
2023-07-24T15:34:39.638Z,99680.28
2023-07-24T15:37:08.903Z,99669.75
2023-07-24T15:39:36.561Z,99657.09
2023-07-24T15:42:04.623Z,99622.75
2023-07-24T15:44:32.222Z,99587.28
2023-07-24T15:46:59.926Z,99572.03
2023-07-24T15:49:27.618Z,99562.66
2023-07-24T15:51:55.772Z,99562.38
2023-07-24T15:54:24.734Z,99545.16
2023-07-24T15:56:52.407Z,99552.97
2023-07-24T15:59:20.004Z,99555.91
2023-07-24T16:01:47.706Z,99563.69
2023-07-24T16:04:15.335Z,99582.28
2023-07-24T16:06:42.921Z,99581.19
2023-07-24T16:09:10.536Z,99577.66
2023-07-24T16:11:39.524Z,99570.41
2023-07-24T16:14:07.258Z,99568.47
2023-07-24T16:16:34.849Z,99577.59
2023-07-24T16:19:15.988Z,99594.59
2023-07-24T16:21:44.727Z,99588.94
2023-07-24T16:24:12.993Z,99584.63
2023-07-24T16:26:42.102Z,99594.00
2023-07-24T16:29:11.200Z,99601.28
2023-07-24T16:31:39.799Z,99619.06
2023-07-24T16:34:07.518Z,99631.50
2023-07-24T16:36:36.095Z,99647.63
2023-07-24T16:39:06.253Z,99660.03
2023-07-24T16:41:34.214Z,99665.66
2023-07-24T16:44:03.508Z,99669.16
2023-07-24T16:46:31.488Z,99654.28
2023-07-24T16:48:59.069Z,99662.88
2023-07-24T16:51:26.714Z,99658.31
2023-07-24T16:53:54.444Z,99646.69
2023-07-24T16:56:22.045Z,99633.44
2023-07-24T16:58:49.775Z,99637.19
2023-07-24T17:01:18.814Z,99628.00
2023-07-24T17:03:46.463Z,99617.25
2023-07-24T17:06:14.176Z,99609.16
2023-07-24T17:08:41.896Z,99593.53
2023-07-24T17:11:09.583Z,99579.97
2023-07-24T17:13:37.449Z,99587.03
2023-07-24T17:16:05.312Z,99571.31
2023-07-24T17:18:34.224Z,99576.13
2023-07-24T17:21:01.826Z,99588.44
2023-07-24T17:23:29.345Z,99614.72
2023-07-24T17:25:56.995Z,99631.81
2023-07-24T17:28:24.536Z,99638.31
2023-07-24T17:30:52.413Z,99643.75
2023-07-24T17:33:19.965Z,99640.56
2023-07-24T17:35:48.884Z,99641.63
2023-07-24T17:38:16.499Z,99645.41
2023-07-24T17:40:44.133Z,99648.34
2023-07-24T17:43:11.771Z,99652.38
2023-07-24T17:45:39.671Z,99655.13
2023-07-24T17:48:07.542Z,99655.94
2023-07-24T17:50:37.516Z,99656.22
2023-07-24T17:53:06.509Z,99652.44
2023-07-24T17:55:34.095Z,99659.72
2023-07-24T17:58:01.779Z,99656.75
2023-07-24T18:00:29.365Z,99648.69
2023-07-24T18:02:57.059Z,99630.59
2023-07-24T18:05:24.635Z,99622.22
2023-07-24T18:07:52.964Z,99615.75
2023-07-24T18:10:22.577Z,99616.84
2023-07-24T18:12:50.639Z,99614.94
2023-07-24T18:15:18.482Z,99617.09
2023-07-24T18:17:46.484Z,99606.28
2023-07-24T18:20:14.376Z,99588.72
2023-07-24T18:22:42.580Z,99594.63
2023-07-24T18:25:10.560Z,99590.84
2023-07-24T18:27:39.816Z,99590.28
2023-07-24T18:30:08.851Z,99594.88
2023-07-24T18:32:36.520Z,99603.25
2023-07-24T18:35:04.334Z,99605.16
2023-07-24T18:37:31.963Z,99600.91
2023-07-24T18:39:59.522Z,99611.94
2023-07-24T18:42:27.129Z,99609.53
2023-07-24T18:44:56.047Z,99607.94
2023-07-24T18:47:23.812Z,99602.84
2023-07-24T18:49:51.374Z,99616.88
2023-07-24T18:52:19.027Z,99634.88
2023-07-24T18:54:46.571Z,99620.31
2023-07-24T18:57:14.157Z,99619.75
2023-07-24T18:59:41.830Z,99619.50
2023-07-24T19:02:10.883Z,99631.94
2023-07-24T19:04:38.505Z,99626.00
2023-07-24T19:07:07.053Z,99637.34
2023-07-24T19:09:34.695Z,99638.97
2023-07-24T19:12:02.589Z,99647.06
2023-07-24T19:14:30.174Z,99654.91
2023-07-24T19:16:57.758Z,99648.97
2023-07-24T19:19:26.732Z,99647.34
2023-07-24T19:21:54.322Z,99649.25
2023-07-24T19:24:22.047Z,99663.25
2023-07-24T19:26:49.768Z,99657.63
2023-07-24T19:29:17.354Z,99663.25
2023-07-24T19:31:45.140Z,99668.41
2023-07-24T19:34:12.752Z,99669.22
2023-07-24T19:36:41.678Z,99669.78
2023-07-24T19:39:09.283Z,99673.53
2023-07-24T19:41:36.894Z,99684.34
2023-07-24T19:44:04.509Z,99684.59
2023-07-24T19:46:32.091Z,99690.25
2023-07-24T19:49:01.244Z,99690.81
2023-07-24T19:51:29.116Z,99699.69
2023-07-24T19:53:58.284Z,99695.13
2023-07-24T19:56:25.934Z,99702.63
2023-07-24T19:58:54.485Z,99702.41
2023-07-24T20:01:22.165Z,99698.88
2023-07-24T20:03:49.899Z,99710.47
2023-07-24T20:06:17.543Z,99706.94
2023-07-24T20:08:45.150Z,99720.44
2023-07-24T20:11:14.094Z,99720.72
2023-07-24T20:13:41.706Z,99724.75
2023-07-24T20:16:09.430Z,99730.13
2023-07-24T20:18:37.037Z,99736.34
2023-07-24T20:21:04.800Z,99741.47
2023-07-24T20:23:32.423Z,99742.00
2023-07-24T20:26:00.003Z,99743.09
2023-07-24T20:28:28.973Z,99746.34
2023-07-24T20:30:56.578Z,99750.09
2023-07-24T20:33:24.683Z,99757.66
2023-07-24T20:35:52.528Z,99757.38
2023-07-24T20:38:24.676Z,99768.44
2023-07-24T20:40:52.821Z,99761.97
2023-07-24T20:43:20.630Z,99774.91
2023-07-24T20:45:51.603Z,99774.91
2023-07-24T20:48:19.329Z,99776.25
2023-07-24T20:50:46.939Z,99767.06
2023-07-24T20:53:14.699Z,99777.03
2023-07-24T20:55:42.274Z,99778.63
2023-07-24T20:58:11.796Z,99775.41
2023-07-24T21:00:39.396Z,99775.94
2023-07-24T21:03:08.383Z,99781.84
2023-07-24T21:05:38.056Z,99782.41
2023-07-24T21:08:06.076Z,99785.88
2023-07-24T21:10:33.682Z,99789.13
2023-07-24T21:13:01.241Z,99793.97
2023-07-24T21:15:28.837Z,99791.03
2023-07-24T21:17:56.464Z,99796.41
2023-07-24T21:20:25.522Z,99793.19
2023-07-24T21:22:53.261Z,99795.84
2023-07-24T21:25:20.891Z,99808.22
2023-07-24T21:27:48.563Z,99802.28
2023-07-24T21:30:16.241Z,99811.44
2023-07-24T21:32:43.867Z,99814.94
2023-07-24T21:35:11.673Z,99810.63
2023-07-24T21:37:42.494Z,99825.94
2023-07-24T21:40:10.846Z,99812.22
2023-07-24T21:42:38.476Z,99825.94
2023-07-24T21:45:08.010Z,99826.19
2023-07-24T21:47:35.705Z,99829.69
2023-07-24T21:50:03.365Z,99818.91
2023-07-24T21:52:30.967Z,99826.44
2023-07-24T21:55:00.008Z,99831.84
2023-07-24T21:57:28.182Z,99832.88
2023-07-24T21:59:55.727Z,99831.78
2023-07-24T22:02:23.414Z,99832.84
2023-07-24T22:04:51.044Z,99835.53
2023-07-24T22:07:18.701Z,99834.97
2023-07-24T22:09:46.302Z,99835.53
2023-07-24T22:12:15.424Z,99846.06
2023-07-24T22:14:43.033Z,99837.97
2023-07-24T22:17:10.953Z,99848.75
2023-07-24T22:19:38.563Z,99855.72
2023-07-24T22:22:07.332Z,99848.19
2023-07-24T22:24:37.716Z,99851.69
2023-07-24T22:27:06.173Z,99854.13
2023-07-24T22:29:35.086Z,99850.06
2023-07-24T22:32:02.693Z,99847.91
2023-07-24T22:34:30.420Z,99862.44
2023-07-24T22:36:58.042Z,99864.59
2023-07-24T22:39:25.793Z,99871.03
2023-07-24T22:41:53.393Z,99872.66
2023-07-24T22:44:20.983Z,99867.00
2023-07-24T22:46:50.031Z,99865.94
2023-07-24T22:49:17.644Z,99872.59
2023-07-24T22:51:45.317Z,99866.66
2023-07-24T22:54:12.932Z,99869.88
2023-07-24T22:56:41.394Z,99875.78
2023-07-24T22:59:23.144Z,99870.94
2023-07-24T23:01:54.107Z,99876.31
2023-07-24T23:04:24.058Z,99869.31
2023-07-24T23:06:53.475Z,99869.31
2023-07-24T23:09:21.030Z,99878.19
2023-07-24T23:11:48.663Z,99875.47
2023-07-24T23:14:16.325Z,99880.56
2023-07-24T23:16:43.998Z,99869.97
2023-07-24T23:19:12.915Z,99879.19
2023-07-24T23:21:40.472Z,99871.41
2023-07-24T23:24:08.050Z,99870.53
2023-07-24T23:26:35.653Z,99876.78
2023-07-24T23:29:03.199Z,99877.84
2023-07-24T23:31:31.121Z,99881.81
2023-07-24T23:33:59.416Z,99875.91
2023-07-24T23:36:28.545Z,99879.47
2023-07-24T23:38:56.201Z,99877.22
2023-07-24T23:41:23.939Z,99872.94
2023-07-24T23:43:51.537Z,99880.72
2023-07-24T23:46:19.261Z,99876.63
2023-07-24T23:48:46.900Z,99876.63
2023-07-24T23:51:15.523Z,99876.06
2023-07-24T23:53:45.112Z,99878.72
2023-07-24T23:56:12.717Z,99878.75
2023-07-24T23:58:40.639Z,99877.69
